sensor_id;sensor_type;location;lat;lon;timestamp;temperature;humidity
68912;SHT31;55953;51.650;-0.522;2023-09-07T00:00:22;21.26;76.86
68912;SHT31;55953;51.650;-0.522;2023-09-07T00:03:11;21.24;77.02
68912;SHT31;55953;51.650;-0.522;2023-09-07T00:05:41;21.29;77.10
68912;SHT31;55953;51.650;-0.522;2023-09-07T00:08:09;21.34;76.89
68912;SHT31;55953;51.650;-0.522;2023-09-07T00:10:37;21.31;76.79
68912;SHT31;55953;51.650;-0.522;2023-09-07T00:13:04;21.20;76.90
68912;SHT31;55953;51.650;-0.522;2023-09-07T00:15:37;21.12;77.11
68912;SHT31;55953;51.650;-0.522;2023-09-07T00:18:05;21.07;77.15
68912;SHT31;55953;51.650;-0.522;2023-09-07T00:20:33;21.03;77.10
68912;SHT31;55953;51.650;-0.522;2023-09-07T00:23:01;20.96;77.26
68912;SHT31;55953;51.650;-0.522;2023-09-07T00:25:30;20.95;77.33
68912;SHT31;55953;51.650;-0.522;2023-09-07T00:27:58;20.91;77.45
68912;SHT31;55953;51.650;-0.522;2023-09-07T00:30:26;20.91;77.59
68912;SHT31;55953;51.650;-0.522;2023-09-07T00:32:54;20.95;77.63
68912;SHT31;55953;51.650;-0.522;2023-09-07T00:35:22;20.99;77.67
68912;SHT31;55953;51.650;-0.522;2023-09-07T00:37:50;21.03;77.57
68912;SHT31;55953;51.650;-0.522;2023-09-07T00:40:18;21.04;77.43
68912;SHT31;55953;51.650;-0.522;2023-09-07T00:42:46;21.05;77.49
68912;SHT31;55953;51.650;-0.522;2023-09-07T00:45:13;21.04;77.51
68912;SHT31;55953;51.650;-0.522;2023-09-07T00:47:41;21.03;77.53
68912;SHT31;55953;51.650;-0.522;2023-09-07T00:50:10;21.00;77.43
68912;SHT31;55953;51.650;-0.522;2023-09-07T00:52:44;20.93;77.65
68912;SHT31;55953;51.650;-0.522;2023-09-07T00:55:14;20.87;77.77
68912;SHT31;55953;51.650;-0.522;2023-09-07T00:57:43;20.87;77.79
68912;SHT31;55953;51.650;-0.522;2023-09-07T01:00:11;20.84;77.89
68912;SHT31;55953;51.650;-0.522;2023-09-07T01:02:40;20.84;78.05
68912;SHT31;55953;51.650;-0.522;2023-09-07T01:05:10;20.91;77.79
68912;SHT31;55953;51.650;-0.522;2023-09-07T01:07:48;20.92;77.84
68912;SHT31;55953;51.650;-0.522;2023-09-07T01:10:26;20.93;77.81
68912;SHT31;55953;51.650;-0.522;2023-09-07T01:12:54;20.92;77.80
68912;SHT31;55953;51.650;-0.522;2023-09-07T01:15:21;20.90;77.87
68912;SHT31;55953;51.650;-0.522;2023-09-07T01:17:49;20.94;77.76
68912;SHT31;55953;51.650;-0.522;2023-09-07T01:20:18;20.96;77.63
68912;SHT31;55953;51.650;-0.522;2023-09-07T01:22:48;20.91;77.61
68912;SHT31;55953;51.650;-0.522;2023-09-07T01:25:15;20.87;77.71
68912;SHT31;55953;51.650;-0.522;2023-09-07T01:27:44;20.82;77.80
68912;SHT31;55953;51.650;-0.522;2023-09-07T01:30:13;20.76;77.84
68912;SHT31;55953;51.650;-0.522;2023-09-07T01:32:41;20.73;77.91
68912;SHT31;55953;51.650;-0.522;2023-09-07T01:35:09;20.74;77.94
68912;SHT31;55953;51.650;-0.522;2023-09-07T01:37:39;20.80;77.74
68912;SHT31;55953;51.650;-0.522;2023-09-07T01:40:07;20.76;77.63
68912;SHT31;55953;51.650;-0.522;2023-09-07T01:42:36;20.71;77.78
68912;SHT31;55953;51.650;-0.522;2023-09-07T01:45:03;20.68;77.83
68912;SHT31;55953;51.650;-0.522;2023-09-07T01:47:32;20.69;77.92
68912;SHT31;55953;51.650;-0.522;2023-09-07T01:50:01;20.75;77.76
68912;SHT31;55953;51.650;-0.522;2023-09-07T01:52:30;20.69;77.67
68912;SHT31;55953;51.650;-0.522;2023-09-07T01:54:58;20.65;77.60
68912;SHT31;55953;51.650;-0.522;2023-09-07T01:57:26;20.55;77.78
68912;SHT31;55953;51.650;-0.522;2023-09-07T01:59:54;20.44;77.95
68912;SHT31;55953;51.650;-0.522;2023-09-07T02:02:22;20.36;78.10
68912;SHT31;55953;51.650;-0.522;2023-09-07T02:04:50;20.35;78.19
68912;SHT31;55953;51.650;-0.522;2023-09-07T02:07:17;20.31;78.35
68912;SHT31;55953;51.650;-0.522;2023-09-07T02:09:45;20.30;78.38
68912;SHT31;55953;51.650;-0.522;2023-09-07T02:12:13;20.30;78.34
68912;SHT31;55953;51.650;-0.522;2023-09-07T02:14:41;20.29;78.35
68912;SHT31;55953;51.650;-0.522;2023-09-07T02:17:09;20.28;78.46
68912;SHT31;55953;51.650;-0.522;2023-09-07T02:19:37;20.28;78.50
68912;SHT31;55953;51.650;-0.522;2023-09-07T02:22:05;20.26;78.37
68912;SHT31;55953;51.650;-0.522;2023-09-07T02:24:33;20.22;78.35
68912;SHT31;55953;51.650;-0.522;2023-09-07T02:27:01;20.18;78.34
68912;SHT31;55953;51.650;-0.522;2023-09-07T02:29:28;20.14;78.51
68912;SHT31;55953;51.650;-0.522;2023-09-07T02:31:56;20.09;78.71
68912;SHT31;55953;51.650;-0.522;2023-09-07T02:34:25;20.10;78.61
68912;SHT31;55953;51.650;-0.522;2023-09-07T02:36:52;20.12;78.66
68912;SHT31;55953;51.650;-0.522;2023-09-07T02:39:20;20.14;78.62
68912;SHT31;55953;51.650;-0.522;2023-09-07T02:41:49;20.09;78.69
68912;SHT31;55953;51.650;-0.522;2023-09-07T02:44:17;20.02;78.87
68912;SHT31;55953;51.650;-0.522;2023-09-07T02:46:45;19.98;78.93
68912;SHT31;55953;51.650;-0.522;2023-09-07T02:49:12;20.00;78.93
68912;SHT31;55953;51.650;-0.522;2023-09-07T02:51:41;20.03;78.85
68912;SHT31;55953;51.650;-0.522;2023-09-07T02:54:09;20.10;78.69
68912;SHT31;55953;51.650;-0.522;2023-09-07T02:56:37;20.14;78.60
68912;SHT31;55953;51.650;-0.522;2023-09-07T02:59:05;20.14;78.62
68912;SHT31;55953;51.650;-0.522;2023-09-07T03:01:33;20.14;78.63
68912;SHT31;55953;51.650;-0.522;2023-09-07T03:04:02;20.21;78.57
68912;SHT31;55953;51.650;-0.522;2023-09-07T03:06:31;20.19;78.46
68912;SHT31;55953;51.650;-0.522;2023-09-07T03:08:59;20.22;78.47
68912;SHT31;55953;51.650;-0.522;2023-09-07T03:11:27;20.25;78.28
68912;SHT31;55953;51.650;-0.522;2023-09-07T03:14:01;20.19;78.28
68912;SHT31;55953;51.650;-0.522;2023-09-07T03:16:29;20.19;78.46
68912;SHT31;55953;51.650;-0.522;2023-09-07T03:18:58;20.19;78.40
68912;SHT31;55953;51.650;-0.522;2023-09-07T03:21:26;20.13;78.39
68912;SHT31;55953;51.650;-0.522;2023-09-07T03:23:59;20.08;78.54
68912;SHT31;55953;51.650;-0.522;2023-09-07T03:26:27;20.03;78.60
68912;SHT31;55953;51.650;-0.522;2023-09-07T03:28:55;20.06;78.55
68912;SHT31;55953;51.650;-0.522;2023-09-07T03:31:25;20.00;78.66
68912;SHT31;55953;51.650;-0.522;2023-09-07T03:33:53;19.94;78.84
68912;SHT31;55953;51.650;-0.522;2023-09-07T03:36:21;19.91;78.99
68912;SHT31;55953;51.650;-0.522;2023-09-07T03:38:49;19.93;78.99
68912;SHT31;55953;51.650;-0.522;2023-09-07T03:41:17;19.94;78.85
68912;SHT31;55953;51.650;-0.522;2023-09-07T03:43:45;19.96;78.75
68912;SHT31;55953;51.650;-0.522;2023-09-07T03:46:13;19.93;78.83
68912;SHT31;55953;51.650;-0.522;2023-09-07T03:48:41;19.90;78.95
68912;SHT31;55953;51.650;-0.522;2023-09-07T03:51:09;19.88;78.96
68912;SHT31;55953;51.650;-0.522;2023-09-07T03:53:37;19.85;79.05
68912;SHT31;55953;51.650;-0.522;2023-09-07T03:56:04;19.88;78.89
68912;SHT31;55953;51.650;-0.522;2023-09-07T03:58:32;19.85;78.90
68912;SHT31;55953;51.650;-0.522;2023-09-07T04:01:01;19.77;79.04
68912;SHT31;55953;51.650;-0.522;2023-09-07T04:03:29;19.75;79.16
68912;SHT31;55953;51.650;-0.522;2023-09-07T04:05:57;19.73;79.23
68912;SHT31;55953;51.650;-0.522;2023-09-07T04:08:25;19.71;79.31
68912;SHT31;55953;51.650;-0.522;2023-09-07T04:10:54;19.72;79.19
68912;SHT31;55953;51.650;-0.522;2023-09-07T04:13:22;19.74;79.23
68912;SHT31;55953;51.650;-0.522;2023-09-07T04:15:49;19.74;79.10
68912;SHT31;55953;51.650;-0.522;2023-09-07T04:18:17;19.67;79.16
68912;SHT31;55953;51.650;-0.522;2023-09-07T04:20:45;19.64;79.38
68912;SHT31;55953;51.650;-0.522;2023-09-07T04:23:14;19.68;79.33
68912;SHT31;55953;51.650;-0.522;2023-09-07T04:25:42;19.67;79.35
68912;SHT31;55953;51.650;-0.522;2023-09-07T04:28:13;19.71;79.25
68912;SHT31;55953;51.650;-0.522;2023-09-07T04:30:41;19.72;79.06
68912;SHT31;55953;51.650;-0.522;2023-09-07T04:33:09;19.67;79.19
68912;SHT31;55953;51.650;-0.522;2023-09-07T04:35:39;19.67;79.26
68912;SHT31;55953;51.650;-0.522;2023-09-07T04:38:07;19.62;79.15
68912;SHT31;55953;51.650;-0.522;2023-09-07T04:40:35;19.54;79.37
68912;SHT31;55953;51.650;-0.522;2023-09-07T04:43:03;19.51;79.47
68912;SHT31;55953;51.650;-0.522;2023-09-07T04:45:31;19.52;79.53
68912;SHT31;55953;51.650;-0.522;2023-09-07T04:47:59;19.52;79.44
68912;SHT31;55953;51.650;-0.522;2023-09-07T04:50:27;19.49;79.43
68912;SHT31;55953;51.650;-0.522;2023-09-07T04:52:54;19.45;79.53
68912;SHT31;55953;51.650;-0.522;2023-09-07T04:55:23;19.44;79.41
68912;SHT31;55953;51.650;-0.522;2023-09-07T04:57:50;19.37;79.65
68912;SHT31;55953;51.650;-0.522;2023-09-07T05:00:18;19.30;79.79
68912;SHT31;55953;51.650;-0.522;2023-09-07T05:02:47;19.27;79.87
68912;SHT31;55953;51.650;-0.522;2023-09-07T05:05:16;19.26;79.88
68912;SHT31;55953;51.650;-0.522;2023-09-07T05:07:44;19.28;79.89
68912;SHT31;55953;51.650;-0.522;2023-09-07T05:10:11;19.31;79.98
68912;SHT31;55953;51.650;-0.522;2023-09-07T05:12:40;19.30;79.83
68912;SHT31;55953;51.650;-0.522;2023-09-07T05:15:08;19.25;80.03
68912;SHT31;55953;51.650;-0.522;2023-09-07T05:17:36;19.23;80.08
68912;SHT31;55953;51.650;-0.522;2023-09-07T05:20:05;19.19;80.17
68912;SHT31;55953;51.650;-0.522;2023-09-07T05:22:34;19.16;80.27
68912;SHT31;55953;51.650;-0.522;2023-09-07T05:25:07;19.19;80.24
68912;SHT31;55953;51.650;-0.522;2023-09-07T05:27:36;19.18;80.27
68912;SHT31;55953;51.650;-0.522;2023-09-07T05:30:04;19.17;80.40
68912;SHT31;55953;51.650;-0.522;2023-09-07T05:32:34;19.16;80.45
68912;SHT31;55953;51.650;-0.522;2023-09-07T05:35:02;19.15;80.45
68912;SHT31;55953;51.650;-0.522;2023-09-07T05:37:30;19.20;80.35
68912;SHT31;55953;51.650;-0.522;2023-09-07T05:39:58;19.24;80.25
68912;SHT31;55953;51.650;-0.522;2023-09-07T05:42:26;19.23;80.18
68912;SHT31;55953;51.650;-0.522;2023-09-07T05:44:54;19.21;80.15
68912;SHT31;55953;51.650;-0.522;2023-09-07T05:47:23;19.21;80.26
68912;SHT31;55953;51.650;-0.522;2023-09-07T05:49:53;19.27;80.27
68912;SHT31;55953;51.650;-0.522;2023-09-07T05:52:21;19.28;80.17
68912;SHT31;55953;51.650;-0.522;2023-09-07T05:54:49;19.29;80.21
68912;SHT31;55953;51.650;-0.522;2023-09-07T05:57:18;19.36;80.10
68912;SHT31;55953;51.650;-0.522;2023-09-07T05:59:45;19.46;79.80
68912;SHT31;55953;51.650;-0.522;2023-09-07T06:02:13;19.51;79.71
68912;SHT31;55953;51.650;-0.522;2023-09-07T06:04:42;19.51;79.68
68912;SHT31;55953;51.650;-0.522;2023-09-07T06:07:10;19.50;79.74
68912;SHT31;55953;51.650;-0.522;2023-09-07T06:09:38;19.53;79.67
68912;SHT31;55953;51.650;-0.522;2023-09-07T06:12:06;19.58;79.61
68912;SHT31;55953;51.650;-0.522;2023-09-07T06:14:34;19.60;79.51
68912;SHT31;55953;51.650;-0.522;2023-09-07T06:17:02;19.62;79.53
68912;SHT31;55953;51.650;-0.522;2023-09-07T06:19:31;19.68;79.41
68912;SHT31;55953;51.650;-0.522;2023-09-07T06:21:59;19.74;79.21
68912;SHT31;55953;51.650;-0.522;2023-09-07T06:24:26;19.75;79.27
68912;SHT31;55953;51.650;-0.522;2023-09-07T06:26:55;19.80;79.07
68912;SHT31;55953;51.650;-0.522;2023-09-07T06:29:22;19.78;79.08
68912;SHT31;55953;51.650;-0.522;2023-09-07T06:31:50;19.83;79.12
68912;SHT31;55953;51.650;-0.522;2023-09-07T06:34:20;19.91;78.89
68912;SHT31;55953;51.650;-0.522;2023-09-07T06:36:49;19.97;78.78
68912;SHT31;55953;51.650;-0.522;2023-09-07T06:39:19;19.95;78.81
68912;SHT31;55953;51.650;-0.522;2023-09-07T06:41:48;19.97;78.88
68912;SHT31;55953;51.650;-0.522;2023-09-07T06:44:18;20.07;78.58
68912;SHT31;55953;51.650;-0.522;2023-09-07T06:46:46;20.07;78.56
68912;SHT31;55953;51.650;-0.522;2023-09-07T06:49:14;20.12;78.52
68912;SHT31;55953;51.650;-0.522;2023-09-07T06:51:41;20.11;78.50
68912;SHT31;55953;51.650;-0.522;2023-09-07T06:54:09;20.15;78.59
68912;SHT31;55953;51.650;-0.522;2023-09-07T06:56:37;20.23;78.38
68912;SHT31;55953;51.650;-0.522;2023-09-07T06:59:05;20.30;78.36
68912;SHT31;55953;51.650;-0.522;2023-09-07T07:01:33;20.36;78.27
68912;SHT31;55953;51.650;-0.522;2023-09-07T07:04:02;20.40;78.19
68912;SHT31;55953;51.650;-0.522;2023-09-07T07:06:30;20.48;78.02
68912;SHT31;55953;51.650;-0.522;2023-09-07T07:08:58;20.43;77.99
68912;SHT31;55953;51.650;-0.522;2023-09-07T07:11:28;20.43;78.11
68912;SHT31;55953;51.650;-0.522;2023-09-07T07:13:56;20.41;78.14
68912;SHT31;55953;51.650;-0.522;2023-09-07T07:16:24;20.43;78.29
68912;SHT31;55953;51.650;-0.522;2023-09-07T07:18:52;20.47;78.26
68912;SHT31;55953;51.650;-0.522;2023-09-07T07:21:20;20.51;78.28
68912;SHT31;55953;51.650;-0.522;2023-09-07T07:23:48;20.59;78.14
68912;SHT31;55953;51.650;-0.522;2023-09-07T07:26:16;20.65;78.18
68912;SHT31;55953;51.650;-0.522;2023-09-07T07:28:45;20.72;78.12
68912;SHT31;55953;51.650;-0.522;2023-09-07T07:31:12;20.73;78.16
68912;SHT31;55953;51.650;-0.522;2023-09-07T07:33:44;20.73;78.28
68912;SHT31;55953;51.650;-0.522;2023-09-07T07:36:13;20.74;78.20
68912;SHT31;55953;51.650;-0.522;2023-09-07T07:38:41;20.81;78.23
68912;SHT31;55953;51.650;-0.522;2023-09-07T07:41:09;20.85;78.27
68912;SHT31;55953;51.650;-0.522;2023-09-07T07:43:37;20.91;78.16
68912;SHT31;55953;51.650;-0.522;2023-09-07T07:46:05;20.99;77.96
68912;SHT31;55953;51.650;-0.522;2023-09-07T07:48:35;21.05;77.97
68912;SHT31;55953;51.650;-0.522;2023-09-07T07:51:04;21.08;77.67
68912;SHT31;55953;51.650;-0.522;2023-09-07T07:53:37;21.12;77.79
68912;SHT31;55953;51.650;-0.522;2023-09-07T07:56:13;21.17;77.64
68912;SHT31;55953;51.650;-0.522;2023-09-07T07:58:45;21.25;77.38
68912;SHT31;55953;51.650;-0.522;2023-09-07T08:01:17;21.32;77.23
68912;SHT31;55953;51.650;-0.522;2023-09-07T08:03:48;21.40;77.10
68912;SHT31;55953;51.650;-0.522;2023-09-07T08:06:17;21.45;77.00
68912;SHT31;55953;51.650;-0.522;2023-09-07T08:08:46;21.51;77.02
68912;SHT31;55953;51.650;-0.522;2023-09-07T08:11:14;21.57;76.95
68912;SHT31;55953;51.650;-0.522;2023-09-07T08:13:42;21.68;76.92
68912;SHT31;55953;51.650;-0.522;2023-09-07T08:16:14;21.76;76.63
68912;SHT31;55953;51.650;-0.522;2023-09-07T08:18:42;21.85;76.51
68912;SHT31;55953;51.650;-0.522;2023-09-07T08:21:10;21.96;76.52
68912;SHT31;55953;51.650;-0.522;2023-09-07T08:23:39;22.05;76.44
68912;SHT31;55953;51.650;-0.522;2023-09-07T08:26:08;22.17;75.87
68912;SHT31;55953;51.650;-0.522;2023-09-07T08:28:37;22.28;75.59
68912;SHT31;55953;51.650;-0.522;2023-09-07T08:31:06;22.38;75.56
68912;SHT31;55953;51.650;-0.522;2023-09-07T08:33:33;22.48;75.20
68912;SHT31;55953;51.650;-0.522;2023-09-07T08:36:08;22.51;75.27
68912;SHT31;55953;51.650;-0.522;2023-09-07T08:38:36;22.56;75.24
68912;SHT31;55953;51.650;-0.522;2023-09-07T08:41:03;22.65;74.91
68912;SHT31;55953;51.650;-0.522;2023-09-07T08:43:33;22.77;74.53
68912;SHT31;55953;51.650;-0.522;2023-09-07T08:46:18;22.88;74.49
68912;SHT31;55953;51.650;-0.522;2023-09-07T08:48:49;22.99;74.20
68912;SHT31;55953;51.650;-0.522;2023-09-07T08:51:19;23.08;73.92
68912;SHT31;55953;51.650;-0.522;2023-09-07T08:53:47;23.12;73.83
68912;SHT31;55953;51.650;-0.522;2023-09-07T08:56:16;23.16;73.62
68912;SHT31;55953;51.650;-0.522;2023-09-07T08:58:45;23.20;73.41
68912;SHT31;55953;51.650;-0.522;2023-09-07T09:01:15;23.25;73.50
68912;SHT31;55953;51.650;-0.522;2023-09-07T09:03:45;23.31;73.19
68912;SHT31;55953;51.650;-0.522;2023-09-07T09:06:13;23.42;72.73
68912;SHT31;55953;51.650;-0.522;2023-09-07T09:08:46;23.52;72.40
68912;SHT31;55953;51.650;-0.522;2023-09-07T09:11:17;23.63;72.31
68912;SHT31;55953;51.650;-0.522;2023-09-07T09:13:46;23.72;72.06
68912;SHT31;55953;51.650;-0.522;2023-09-07T09:16:16;23.75;72.12
68912;SHT31;55953;51.650;-0.522;2023-09-07T09:18:48;23.74;72.04
68912;SHT31;55953;51.650;-0.522;2023-09-07T09:21:24;23.77;72.23
68912;SHT31;55953;51.650;-0.522;2023-09-07T09:23:54;23.84;71.55
68912;SHT31;55953;51.650;-0.522;2023-09-07T09:26:24;23.95;71.32
68912;SHT31;55953;51.650;-0.522;2023-09-07T09:28:57;24.04;70.85
68912;SHT31;55953;51.650;-0.522;2023-09-07T09:31:27;24.07;70.93
68912;SHT31;55953;51.650;-0.522;2023-09-07T09:33:57;24.06;70.74
68912;SHT31;55953;51.650;-0.522;2023-09-07T09:36:32;24.09;70.84
68912;SHT31;55953;51.650;-0.522;2023-09-07T09:39:02;24.15;70.69
68912;SHT31;55953;51.650;-0.522;2023-09-07T09:41:33;24.21;70.04
68912;SHT31;55953;51.650;-0.522;2023-09-07T09:44:03;24.28;69.59
68912;SHT31;55953;51.650;-0.522;2023-09-07T09:46:32;24.35;69.50
68912;SHT31;55953;51.650;-0.522;2023-09-07T09:49:03;24.42;69.31
68912;SHT31;55953;51.650;-0.522;2023-09-07T09:51:32;24.50;68.48
68912;SHT31;55953;51.650;-0.522;2023-09-07T09:54:01;24.59;68.34
68912;SHT31;55953;51.650;-0.522;2023-09-07T09:56:31;24.64;67.98
68912;SHT31;55953;51.650;-0.522;2023-09-07T09:58:59;24.68;68.41
68912;SHT31;55953;51.650;-0.522;2023-09-07T10:01:27;24.77;68.02
68912;SHT31;55953;51.650;-0.522;2023-09-07T10:03:56;24.83;67.87
68912;SHT31;55953;51.650;-0.522;2023-09-07T10:06:27;24.88;67.64
68912;SHT31;55953;51.650;-0.522;2023-09-07T10:11:35;25.04;66.33
68912;SHT31;55953;51.650;-0.522;2023-09-07T10:14:06;25.06;66.20
68912;SHT31;55953;51.650;-0.522;2023-09-07T10:16:42;25.12;65.63
68912;SHT31;55953;51.650;-0.522;2023-09-07T10:19:18;25.24;65.93
68912;SHT31;55953;51.650;-0.522;2023-09-07T10:21:52;25.33;65.29
68912;SHT31;55953;51.650;-0.522;2023-09-07T10:26:57;25.47;64.45
68912;SHT31;55953;51.650;-0.522;2023-09-07T10:29:50;25.52;64.58
68912;SHT31;55953;51.650;-0.522;2023-09-07T10:32:23;25.57;63.95
68912;SHT31;55953;51.650;-0.522;2023-09-07T10:34:51;25.66;63.16
68912;SHT31;55953;51.650;-0.522;2023-09-07T10:37:19;25.72;63.03
68912;SHT31;55953;51.650;-0.522;2023-09-07T10:39:47;25.76;63.17
68912;SHT31;55953;51.650;-0.522;2023-09-07T10:42:24;25.80;63.31
68912;SHT31;55953;51.650;-0.522;2023-09-07T10:44:53;25.87;62.75
68912;SHT31;55953;51.650;-0.522;2023-09-07T10:47:22;25.94;62.60
68912;SHT31;55953;51.650;-0.522;2023-09-07T10:49:50;25.99;62.54
68912;SHT31;55953;51.650;-0.522;2023-09-07T10:52:18;26.01;61.03
68912;SHT31;55953;51.650;-0.522;2023-09-07T10:54:55;26.09;60.27
68912;SHT31;55953;51.650;-0.522;2023-09-07T10:57:25;26.15;58.76
68912;SHT31;55953;51.650;-0.522;2023-09-07T10:59:54;26.21;58.48
68912;SHT31;55953;51.650;-0.522;2023-09-07T11:02:23;26.29;58.09
68912;SHT31;55953;51.650;-0.522;2023-09-07T11:04:51;26.33;58.21
68912;SHT31;55953;51.650;-0.522;2023-09-07T11:07:19;26.38;58.00
68912;SHT31;55953;51.650;-0.522;2023-09-07T11:09:47;26.42;58.09
68912;SHT31;55953;51.650;-0.522;2023-09-07T11:12:20;26.49;57.86
68912;SHT31;55953;51.650;-0.522;2023-09-07T11:14:48;26.52;57.68
68912;SHT31;55953;51.650;-0.522;2023-09-07T11:17:16;26.60;56.84
68912;SHT31;55953;51.650;-0.522;2023-09-07T11:19:44;26.66;57.36
68912;SHT31;55953;51.650;-0.522;2023-09-07T11:22:12;26.67;56.39
68912;SHT31;55953;51.650;-0.522;2023-09-07T11:24:41;26.75;55.82
68912;SHT31;55953;51.650;-0.522;2023-09-07T11:27:09;26.82;56.28
68912;SHT31;55953;51.650;-0.522;2023-09-07T11:29:37;26.90;56.10
68912;SHT31;55953;51.650;-0.522;2023-09-07T11:32:07;26.96;56.26
68912;SHT31;55953;51.650;-0.522;2023-09-07T11:34:48;27.06;55.53
68912;SHT31;55953;51.650;-0.522;2023-09-07T11:37:24;27.18;54.69
68912;SHT31;55953;51.650;-0.522;2023-09-07T11:39:53;27.22;54.15
68912;SHT31;55953;51.650;-0.522;2023-09-07T11:42:21;27.27;53.55
68912;SHT31;55953;51.650;-0.522;2023-09-07T11:44:50;27.35;53.73
68912;SHT31;55953;51.650;-0.522;2023-09-07T11:47:17;27.46;52.82
68912;SHT31;55953;51.650;-0.522;2023-09-07T11:49:45;27.55;52.35
68912;SHT31;55953;51.650;-0.522;2023-09-07T11:52:13;27.60;52.18
68912;SHT31;55953;51.650;-0.522;2023-09-07T11:54:41;27.66;52.04
68912;SHT31;55953;51.650;-0.522;2023-09-07T11:57:08;27.74;52.40
68912;SHT31;55953;51.650;-0.522;2023-09-07T11:59:36;27.85;52.55
68912;SHT31;55953;51.650;-0.522;2023-09-07T12:02:24;27.93;51.74
68912;SHT31;55953;51.650;-0.522;2023-09-07T12:04:52;28.01;51.25
68912;SHT31;55953;51.650;-0.522;2023-09-07T12:07:21;28.08;51.20
68912;SHT31;55953;51.650;-0.522;2023-09-07T12:09:49;28.17;50.78
68912;SHT31;55953;51.650;-0.522;2023-09-07T12:12:17;28.27;50.56
68912;SHT31;55953;51.650;-0.522;2023-09-07T12:14:45;28.38;49.91
68912;SHT31;55953;51.650;-0.522;2023-09-07T12:17:13;28.44;49.91
68912;SHT31;55953;51.650;-0.522;2023-09-07T12:19:42;28.48;49.96
68912;SHT31;55953;51.650;-0.522;2023-09-07T12:22:13;28.55;49.96
68912;SHT31;55953;51.650;-0.522;2023-09-07T12:24:41;28.63;49.81
68912;SHT31;55953;51.650;-0.522;2023-09-07T12:27:08;28.71;49.11
68912;SHT31;55953;51.650;-0.522;2023-09-07T12:29:36;28.77;48.86
68912;SHT31;55953;51.650;-0.522;2023-09-07T12:32:04;28.86;49.22
68912;SHT31;55953;51.650;-0.522;2023-09-07T12:34:33;28.96;49.70
68912;SHT31;55953;51.650;-0.522;2023-09-07T12:37:01;29.06;48.91
68912;SHT31;55953;51.650;-0.522;2023-09-07T12:39:31;29.09;49.09
68912;SHT31;55953;51.650;-0.522;2023-09-07T12:42:00;29.18;49.32
68912;SHT31;55953;51.650;-0.522;2023-09-07T12:44:29;29.28;49.36
68912;SHT31;55953;51.650;-0.522;2023-09-07T12:46:57;29.39;48.60
68912;SHT31;55953;51.650;-0.522;2023-09-07T12:49:24;29.56;48.32
68912;SHT31;55953;51.650;-0.522;2023-09-07T12:51:52;29.69;47.74
68912;SHT31;55953;51.650;-0.522;2023-09-07T12:54:20;29.77;47.10
68912;SHT31;55953;51.650;-0.522;2023-09-07T12:56:48;29.83;46.89
68912;SHT31;55953;51.650;-0.522;2023-09-07T12:59:16;29.90;46.81
68912;SHT31;55953;51.650;-0.522;2023-09-07T13:01:43;30.00;46.78
68912;SHT31;55953;51.650;-0.522;2023-09-07T13:04:11;30.08;46.42
68912;SHT31;55953;51.650;-0.522;2023-09-07T13:06:39;30.13;44.69
68912;SHT31;55953;51.650;-0.522;2023-09-07T13:09:07;30.10;44.62
68912;SHT31;55953;51.650;-0.522;2023-09-07T13:11:37;30.11;44.98
68912;SHT31;55953;51.650;-0.522;2023-09-07T13:14:06;30.14;45.59
68912;SHT31;55953;51.650;-0.522;2023-09-07T13:16:38;30.12;45.30
68912;SHT31;55953;51.650;-0.522;2023-09-07T13:19:06;30.14;45.76
68912;SHT31;55953;51.650;-0.522;2023-09-07T13:21:34;30.22;45.98
68912;SHT31;55953;51.650;-0.522;2023-09-07T13:24:03;30.25;45.77
68912;SHT31;55953;51.650;-0.522;2023-09-07T13:26:31;30.27;45.17
68912;SHT31;55953;51.650;-0.522;2023-09-07T13:29:00;30.32;45.84
68912;SHT31;55953;51.650;-0.522;2023-09-07T13:31:28;30.41;45.31
68912;SHT31;55953;51.650;-0.522;2023-09-07T13:33:56;30.49;45.21
68912;SHT31;55953;51.650;-0.522;2023-09-07T13:36:23;30.56;44.52
68912;SHT31;55953;51.650;-0.522;2023-09-07T13:38:51;30.58;44.45
68912;SHT31;55953;51.650;-0.522;2023-09-07T13:41:19;30.58;44.30
68912;SHT31;55953;51.650;-0.522;2023-09-07T13:43:47;30.56;44.06
68912;SHT31;55953;51.650;-0.522;2023-09-07T13:46:15;30.53;44.46
68912;SHT31;55953;51.650;-0.522;2023-09-07T13:48:44;30.40;44.98
68912;SHT31;55953;51.650;-0.522;2023-09-07T13:51:12;30.37;45.12
68912;SHT31;55953;51.650;-0.522;2023-09-07T13:53:40;30.39;44.70
68912;SHT31;55953;51.650;-0.522;2023-09-07T13:56:08;30.35;45.24
68912;SHT31;55953;51.650;-0.522;2023-09-07T13:58:36;30.37;44.90
68912;SHT31;55953;51.650;-0.522;2023-09-07T14:01:04;30.40;45.09
68912;SHT31;55953;51.650;-0.522;2023-09-07T14:03:32;30.39;44.58
68912;SHT31;55953;51.650;-0.522;2023-09-07T14:06:02;30.24;44.15
68912;SHT31;55953;51.650;-0.522;2023-09-07T14:08:30;30.19;43.32
68912;SHT31;55953;51.650;-0.522;2023-09-07T14:11:00;30.19;44.12
68912;SHT31;55953;51.650;-0.522;2023-09-07T14:13:29;30.16;44.97
68912;SHT31;55953;51.650;-0.522;2023-09-07T14:16:02;30.19;45.12
68912;SHT31;55953;51.650;-0.522;2023-09-07T14:18:30;30.23;44.28
68912;SHT31;55953;51.650;-0.522;2023-09-07T14:20:57;30.21;43.71
68912;SHT31;55953;51.650;-0.522;2023-09-07T14:23:26;30.21;44.52
68912;SHT31;55953;51.650;-0.522;2023-09-07T14:25:54;30.24;43.81
68912;SHT31;55953;51.650;-0.522;2023-09-07T14:28:22;30.25;43.88
68912;SHT31;55953;51.650;-0.522;2023-09-07T14:30:49;30.24;44.81
68912;SHT31;55953;51.650;-0.522;2023-09-07T14:33:18;30.25;44.00
68912;SHT31;55953;51.650;-0.522;2023-09-07T14:35:46;30.22;44.07
68912;SHT31;55953;51.650;-0.522;2023-09-07T14:38:14;30.21;45.28
68912;SHT31;55953;51.650;-0.522;2023-09-07T14:40:42;30.18;45.65
68912;SHT31;55953;51.650;-0.522;2023-09-07T14:43:10;30.17;43.83
68912;SHT31;55953;51.650;-0.522;2023-09-07T14:45:38;30.15;43.53
68912;SHT31;55953;51.650;-0.522;2023-09-07T14:48:06;30.19;43.86
68912;SHT31;55953;51.650;-0.522;2023-09-07T14:50:34;30.18;43.84
68912;SHT31;55953;51.650;-0.522;2023-09-07T14:53:02;30.11;43.39
68912;SHT31;55953;51.650;-0.522;2023-09-07T14:55:30;30.06;42.74
68912;SHT31;55953;51.650;-0.522;2023-09-07T14:57:58;30.08;42.13
68912;SHT31;55953;51.650;-0.522;2023-09-07T15:00:26;30.11;42.31
68912;SHT31;55953;51.650;-0.522;2023-09-07T15:02:54;30.15;43.07
68912;SHT31;55953;51.650;-0.522;2023-09-07T15:05:22;30.15;42.75
68912;SHT31;55953;51.650;-0.522;2023-09-07T15:07:50;30.16;42.01
68912;SHT31;55953;51.650;-0.522;2023-09-07T15:10:18;30.19;43.53
68912;SHT31;55953;51.650;-0.522;2023-09-07T15:12:45;30.17;42.58
68912;SHT31;55953;51.650;-0.522;2023-09-07T15:15:13;30.14;41.72
68912;SHT31;55953;51.650;-0.522;2023-09-07T15:17:45;30.12;42.32
68912;SHT31;55953;51.650;-0.522;2023-09-07T15:20:16;30.13;41.98
68912;SHT31;55953;51.650;-0.522;2023-09-07T15:22:44;30.12;43.37
68912;SHT31;55953;51.650;-0.522;2023-09-07T15:25:11;30.10;43.34
68912;SHT31;55953;51.650;-0.522;2023-09-07T15:27:39;30.12;43.69
68912;SHT31;55953;51.650;-0.522;2023-09-07T15:30:13;30.13;43.69